Time;durP1;ratioP1;P1;durP2;ratioP2;P2;SDS_P1;SDS_P2;PMS_P1;PMS_P2;Temp;Humidity;BMP_temperature;BMP_pressure;BME280_temperature;BME280_humidity;BME280_pressure;Samples;Min_cycle;Max_cycle;Signal;HPM_P1;HPM_P2
2022/10/27 00:01:02;;;;;;;4.13;1.45;;;;;;;24.62;44.00;100923.44;5015068;28;20025;-55
2022/10/27 00:03:31;;;;;;;3.58;1.10;;;;;;;24.63;43.83;100919.06;5014540;28;20034;-58
2022/10/27 00:06:05;;;;;;;5.30;1.55;;;;;;;24.62;44.07;100917.28;5014393;28;20546;-58
2022/10/27 00:08:33;;;;;;;3.93;1.40;;;;;;;24.64;43.99;100926.06;5014806;28;20161;-58
2022/10/27 00:11:04;;;;;;;4.93;1.42;;;;;;;24.53;44.43;100916.34;4997223;28;20038;-57
2022/10/27 00:13:32;;;;;;;7.35;1.95;;;;;;;24.61;44.42;100915.53;5014538;28;20038;-55
2022/10/27 00:16:03;;;;;;;5.95;1.30;;;;;;;24.63;44.28;100921.66;5014319;28;20471;-56
2022/10/27 00:18:32;;;;;;;7.13;1.60;;;;;;;24.67;44.07;100902.47;5014573;28;20029;-58
2022/10/27 00:21:12;;;;;;;4.45;1.70;;;;;;;24.51;44.16;100878.75;4997175;28;20088;-58
2022/10/27 00:23:41;;;;;;;5.57;1.38;;;;;;;24.66;44.04;100895.47;5014421;28;20042;-58
2022/10/27 00:26:12;;;;;;;5.55;1.85;;;;;;;24.58;44.30;100891.03;5014522;28;20026;-58
2022/10/27 00:28:41;;;;;;;6.20;1.70;;;;;;;24.58;44.52;100888.41;5014372;28;20026;-58
2022/10/27 00:31:29;;;;;;;5.47;1.58;;;;;;;24.53;44.32;100886.59;5014720;28;20030;-58
2022/10/27 00:33:57;;;;;;;5.43;1.35;;;;;;;24.58;44.25;100895.41;5013943;28;20034;-58
2022/10/27 00:36:26;;;;;;;4.68;1.40;;;;;;;24.60;44.26;100895.41;5014585;28;20032;-58
2022/10/27 00:38:55;;;;;;;3.42;1.15;;;;;;;24.50;44.50;100894.44;5013904;28;20087;-57
2022/10/27 00:41:26;;;;;;;3.55;1.40;;;;;;;24.53;44.57;100873.50;4996447;28;20030;-57
2022/10/27 00:43:55;;;;;;;5.38;1.63;;;;;;;24.59;44.44;100865.69;5014181;28;20399;-57
2022/10/27 00:46:30;;;;;;;5.63;2.10;;;;;;;24.52;44.45;100875.25;5013868;28;20061;-56
2022/10/27 00:49:04;;;;;;;5.63;1.65;;;;;;;24.53;44.73;100866.53;4996779;28;20435;-57
2022/10/27 00:51:32;;;;;;;8.18;2.33;;;;;;;24.56;44.29;100878.78;4996282;28;20463;-55
2022/10/27 00:54:01;;;;;;;6.18;1.50;;;;;;;24.61;44.18;100886.69;4996082;28;20030;-55
2022/10/27 00:56:30;;;;;;;4.95;1.58;;;;;;;24.63;44.43;100887.56;5013790;28;20475;-57
2022/10/27 00:58:58;;;;;;;5.53;1.80;;;;;;;24.64;44.42;100884.09;5013923;28;20533;-57
2022/10/27 01:01:28;;;;;;;11.00;2.15;;;;;;;24.69;44.50;100870.16;4996393;28;20026;-57
2022/10/27 01:03:57;;;;;;;5.47;1.55;;;;;;;24.63;44.37;100874.47;4995880;28;20026;-57
2022/10/27 01:06:26;;;;;;;5.22;1.45;;;;;;;24.58;44.45;100877.06;5013676;28;20120;-57
2022/10/27 01:08:55;;;;;;;4.75;1.90;;;;;;;24.58;44.67;100883.16;5013466;28;20401;-58
2022/10/27 01:11:24;;;;;;;6.93;2.20;;;;;;;24.59;44.83;100894.53;5013867;28;20108;-57
2022/10/27 01:13:53;;;;;;;5.40;1.60;;;;;;;24.56;44.86;100912.88;5013635;28;20109;-57
2022/10/27 01:26:09;;;;;;;4.85;1.70;;;;;;;24.31;45.27;101045.44;4913175;29;20087;-57
2022/10/27 01:28:42;;;;;;;;;;;;;;;24.42;45.27;101043.81;4915066;29;20055;-57
2022/10/27 01:31:13;;;;;;;3.53;1.40;;;;;;;24.43;45.08;101029.84;4914413;29;20325;-57
2022/10/27 01:33:49;;;;;;;4.82;1.38;;;;;;;24.38;45.21;101013.22;4899058;29;20036;-57
2022/10/27 01:36:26;;;;;;;5.20;1.30;;;;;;;24.36;45.18;101012.31;4899262;29;20039;-54
2022/10/27 01:39:04;;;;;;;4.28;1.30;;;;;;;24.35;45.32;101011.41;4899506;29;20497;-56
2022/10/27 01:41:47;;;;;;;5.25;1.65;;;;;;;24.35;45.29;101024.53;4898832;29;20088;-56
2022/10/27 01:44:22;;;;;;;5.60;1.80;;;;;;;24.36;44.97;101015.78;4899226;29;20044;-58
2022/10/27 01:46:51;;;;;;;5.57;1.95;;;;;;;24.36;45.14;101026.28;4914601;29;20549;-57
2022/10/27 01:49:19;;;;;;;4.75;1.60;;;;;;;24.46;45.06;101016.78;4925038;28;20035;-58
2022/10/27 01:51:49;;;;;;;5.50;1.88;;;;;;;24.41;45.24;101016.75;5012888;28;20033;-58
2022/10/27 01:54:20;;;;;;;6.68;1.90;;;;;;;24.45;44.79;101011.53;5012768;28;20030;-56
2022/10/27 01:57:15;;;;;;;6.50;1.50;;;;;;;24.40;45.35;101006.25;5012894;28;20076;-58
2022/10/27 02:00:04;;;;;;;5.18;1.70;;;;;;;24.38;45.03;100984.38;4975163;28;20052;-58
2022/10/27 02:02:49;;;;;;;7.10;2.00;;;;;;;24.34;45.17;100977.31;5013110;28;20444;-57
2022/10/27 02:05:22;;;;;;;5.85;1.70;;;;;;;24.40;45.09;100977.41;5012512;28;20081;-58
2022/10/27 02:07:59;;;;;;;6.20;1.73;;;;;;;24.45;44.84;100980.06;5012739;28;20096;-58
2022/10/27 02:10:49;;;;;;;5.85;1.85;;;;;;;24.40;45.28;100975.66;5012887;28;20451;-58
2022/10/27 02:13:18;;;;;;;6.63;2.25;;;;;;;24.42;45.08;100960.81;4995553;28;20033;-56
2022/10/27 02:15:50;;;;;;;5.88;2.15;;;;;;;24.47;45.08;100966.09;5012710;28;20203;-58
2022/10/27 02:18:24;;;;;;;3.58;1.42;;;;;;;24.43;45.01;100962.56;4995274;28;20049;-58
2022/10/27 02:20:56;;;;;;;5.03;1.35;;;;;;;24.36;45.35;100954.63;5013008;28;20030;-58
2022/10/27 02:23:25;;;;;;;4.85;1.35;;;;;;;24.40;44.93;100946.81;5012484;28;20372;-59
2022/10/27 02:26:03;;;;;;;6.63;1.65;;;;;;;24.42;45.21;100946.81;4995392;28;20049;-58
2022/10/27 02:28:54;;;;;;;7.75;2.22;;;;;;;24.40;44.95;100928.44;5013266;28;20479;-58
2022/10/27 02:31:24;;;;;;;6.63;1.50;;;;;;;24.38;45.00;100924.06;4998434;28;20390;-58
2022/10/27 02:33:54;;;;;;;5.28;1.52;;;;;;;24.42;45.32;100926.72;4999080;28;20026;-58
2022/10/27 02:36:22;;;;;;;4.97;1.25;;;;;;;24.42;45.23;100915.34;5016357;28;20114;-58
2022/10/27 02:38:51;;;;;;;5.07;1.40;;;;;;;24.43;45.15;100890.88;5016077;28;20386;-58
2022/10/27 02:41:19;;;;;;;4.78;1.52;;;;;;;24.45;45.13;100893.53;4999278;28;20061;-58
2022/10/27 02:43:48;;;;;;;6.35;1.85;;;;;;;24.40;44.88;100893.50;5016133;28;20034;-54
2022/10/27 02:46:17;;;;;;;5.95;1.65;;;;;;;24.48;44.81;100901.44;5016152;28;20022;-55
2022/10/27 02:48:45;;;;;;;7.70;1.92;;;;;;;24.43;45.32;100897.03;5016422;28;20032;-58
2022/10/27 02:51:14;;;;;;;5.05;1.80;;;;;;;24.41;45.05;100896.13;5015975;28;20042;-57
2022/10/27 02:53:42;;;;;;;4.95;1.65;;;;;;;24.40;44.97;100886.50;5016208;28;20088;-55
2022/10/27 02:56:11;;;;;;;5.88;1.75;;;;;;;24.42;45.24;100895.25;5016580;28;20525;-57
2022/10/27 02:58:39;;;;;;;4.15;1.35;;;;;;;24.42;45.28;100890.03;5015809;28;20030;-54
2022/10/27 03:01:08;;;;;;;6.90;1.90;;;;;;;24.46;45.04;100890.06;5015778;28;20041;-58
2022/10/27 03:03:36;;;;;;;7.13;2.03;;;;;;;24.41;45.03;100885.63;5015713;28;20391;-57
2022/10/27 03:06:05;;;;;;;5.07;1.42;;;;;;;24.30;45.06;100863.69;5015736;28;20092;-57
2022/10/27 03:08:34;;;;;;;5.25;1.83;;;;;;;24.44;45.20;100892.66;5015848;28;20021;-58
2022/10/27 03:11:02;;;;;;;6.18;1.90;;;;;;;24.41;44.87;100880.41;5015882;28;20496;-53
2022/10/27 03:13:31;;;;;;;4.18;1.35;;;;;;;24.42;45.34;100874.28;4998677;28;20026;-57
2022/10/27 03:15:58;;;;;;;3.50;1.33;;;;;;;24.43;45.27;100873.44;5015606;28;20033;-57
2022/10/27 03:18:26;;;;;;;6.10;1.48;;;;;;;24.43;45.26;100865.56;5015619;28;20449;-57
2022/10/27 03:20:55;;;;;;;4.50;1.75;;;;;;;24.37;45.42;100854.13;5015445;28;20033;-57
2022/10/27 03:23:24;;;;;;;6.10;1.52;;;;;;;24.31;45.44;100834.00;5015578;28;20505;-55
2022/10/27 03:25:52;;;;;;;4.28;1.60;;;;;;;24.44;45.22;100850.69;5015594;28;20053;-56
2022/10/27 03:28:21;;;;;;;6.00;1.38;;;;;;;24.37;45.44;100835.78;5015592;28;20467;-58
2022/10/27 03:30:49;;;;;;;4.97;1.52;;;;;;;24.42;44.92;100828.81;5015569;28;20030;-57
2022/10/27 03:33:17;;;;;;;6.10;1.65;;;;;;;24.39;45.30;100839.31;5014823;28;20061;-55
2022/10/27 03:35:45;;;;;;;4.10;1.52;;;;;;;24.38;45.20;100851.50;4997241;28;20033;-56
2022/10/27 03:38:14;;;;;;;4.55;1.52;;;;;;;24.37;45.19;100862.88;5015210;28;20079;-58
2022/10/27 03:40:42;;;;;;;6.38;1.60;;;;;;;24.40;45.13;100869.91;5014400;28;20121;-57
2022/10/27 03:43:10;;;;;;;6.43;1.58;;;;;;;24.41;45.44;100864.66;5015297;28;20034;-58
2022/10/27 03:45:39;;;;;;;7.00;1.73;;;;;;;24.46;45.21;100859.47;5015261;28;20091;-57
2022/10/27 03:48:10;;;;;;;3.40;1.33;;;;;;;24.38;45.15;100856.75;5014954;28;20368;-55
2022/10/27 03:50:39;;;;;;;5.82;1.95;;;;;;;24.40;45.40;100878.63;4997774;28;20030;-56
2022/10/27 03:53:07;;;;;;;4.95;1.30;;;;;;;24.43;45.15;100888.25;5014818;28;20036;-55
2022/10/27 03:55:36;;;;;;;7.20;2.03;;;;;;;24.44;45.29;100897.88;5014832;28;20493;-58
2022/10/27 03:58:04;;;;;;;5.85;1.67;;;;;;;24.45;45.26;100910.13;5014867;28;20120;-59
2022/10/27 04:00:33;;;;;;;7.07;1.77;;;;;;;24.43;44.95;100906.63;5014927;28;20026;-53
2022/10/27 04:03:02;;;;;;;5.10;1.48;;;;;;;24.43;45.12;100904.88;5014386;28;20048;-58
2022/10/27 04:05:30;;;;;;;5.03;1.70;;;;;;;24.44;45.04;100916.25;5014538;28;20561;-58
2022/10/27 04:07:59;;;;;;;5.25;1.83;;;;;;;24.41;45.44;100913.59;5014483;28;20030;-58
2022/10/27 04:10:28;;;;;;;7.15;2.08;;;;;;;24.45;45.16;100920.63;5014737;28;20025;-58
2022/10/27 04:12:57;;;;;;;7.25;1.92;;;;;;;24.45;45.16;100911.91;5014446;28;20030;-58
2022/10/27 04:15:27;;;;;;;5.32;1.67;;;;;;;24.45;45.37;100909.28;5014688;28;20024;-58
2022/10/27 04:17:57;;;;;;;8.05;1.98;;;;;;;24.42;45.42;100903.13;5014433;28;20084;-57
2022/10/27 04:20:28;;;;;;;8.07;2.30;;;;;;;24.45;45.13;100906.66;5014471;28;20064;-58
2022/10/27 04:22:57;;;;;;;6.25;2.05;;;;;;;24.42;45.44;100902.22;5014403;28;20038;-58
2022/10/27 04:25:26;;;;;;;6.32;1.50;;;;;;;24.41;45.23;100898.75;4996846;28;20426;-56
2022/10/27 04:28:02;;;;;;;7.88;2.50;;;;;;;24.46;45.15;100909.28;5014514;28;20060;-59
2022/10/27 04:30:31;;;;;;;8.10;1.98;;;;;;;24.43;45.25;100907.50;5014288;28;20030;-56
2022/10/27 04:32:59;;;;;;;7.40;1.70;;;;;;;24.45;45.30;100910.13;5014150;28;20032;-58
2022/10/27 04:35:28;;;;;;;7.20;1.80;;;;;;;24.45;45.26;100909.28;5014389;28;20037;-58
2022/10/27 04:37:57;;;;;;;4.80;1.85;;;;;;;24.45;44.98;100904.03;5014186;28;20044;-58
2022/10/27 04:40:25;;;;;;;8.52;2.08;;;;;;;24.44;44.82;100903.13;5014104;28;20064;-58
2022/10/27 04:42:54;;;;;;;5.07;1.67;;;;;;;24.43;45.45;100906.63;5014156;28;20030;-57
2022/10/27 04:45:23;;;;;;;6.55;1.70;;;;;;;24.40;45.33;100901.38;5013722;28;20113;-57
2022/10/27 04:47:51;;;;;;;5.60;1.60;;;;;;;24.40;45.50;100904.84;4996276;28;20033;-57
2022/10/27 04:50:21;;;;;;;5.18;1.85;;;;;;;24.41;45.50;100914.47;5013863;28;20025;-58
2022/10/27 04:53:01;;;;;;;9.27;2.47;;;;;;;24.33;45.71;100915.25;5012878;28;20030;-57
2022/10/27 04:55:32;;;;;;;5.72;1.45;;;;;;;24.41;45.43;100924.06;5013528;28;20030;-57
2022/10/27 04:58:00;;;;;;;6.20;1.85;;;;;;;24.43;45.18;100912.75;5013841;28;20030;-56
2022/10/27 05:00:29;;;;;;;3.80;0.98;;;;;;;24.45;45.22;100910.13;4995930;28;20034;-55
2022/10/27 05:02:59;;;;;;;6.53;2.15;;;;;;;24.38;45.54;100911.81;5013528;28;20470;-56
2022/10/27 05:05:28;;;;;;;7.43;1.70;;;;;;;24.39;45.49;100908.34;5013747;28;20076;-50
2022/10/27 05:07:59;;;;;;;3.20;1.40;;;;;;;24.45;45.10;100911.91;5013672;28;20026;-58
2022/10/27 05:10:30;;;;;;;5.22;1.45;;;;;;;24.41;45.24;100909.25;5013423;28;20026;-56
2022/10/27 05:12:59;;;;;;;6.35;1.60;;;;;;;24.37;45.41;100906.56;5013491;28;20062;-56
2022/10/27 05:15:28;;;;;;;4.90;1.55;;;;;;;24.42;45.51;100920.59;5013699;28;20034;-54
2022/10/27 05:17:56;;;;;;;4.18;1.30;;;;;;;24.44;45.10;100918.88;4995584;28;20486;-56
2022/10/27 05:20:24;;;;;;;4.30;1.45;;;;;;;24.40;45.40;100915.34;4995857;28;20026;-50
2022/10/27 05:22:53;;;;;;;4.63;1.15;;;;;;;24.40;45.35;100914.47;5013415;28;20032;-53
2022/10/27 05:25:22;;;;;;;3.40;1.42;;;;;;;24.43;45.49;100907.50;5013599;28;20096;-56
2022/10/27 05:27:50;;;;;;;4.88;1.83;;;;;;;24.43;45.49;100907.50;5013424;28;20022;-57
2022/10/27 05:30:19;;;;;;;4.60;1.65;;;;;;;24.41;45.50;100908.34;5013550;28;20485;-58
2022/10/27 05:32:49;;;;;;;3.55;1.35;;;;;;;24.41;45.58;100916.19;5013118;28;20417;-57
2022/10/27 05:35:17;;;;;;;5.07;1.42;;;;;;;24.36;45.16;100915.31;5013513;28;20397;-57
2022/10/27 05:37:46;;;;;;;4.15;1.27;;;;;;;24.34;45.40;100917.03;5013429;28;20036;-57
2022/10/27 05:40:15;;;;;;;3.83;1.35;;;;;;;24.33;45.37;100910.88;5012847;28;20054;-52
2022/10/27 05:43:02;;;;;;;7.28;1.90;;;;;;;24.34;45.43;100912.66;5013152;28;20037;-58
2022/10/27 05:45:31;;;;;;;2.47;1.10;;;;;;;24.38;45.29;100914.44;5012652;28;20080;-58
2022/10/27 05:48:02;;;;;;;3.80;1.52;;;;;;;24.37;45.46;100907.44;4995581;28;20041;-57
2022/10/27 05:50:32;;;;;;;5.95;1.50;;;;;;;24.38;45.07;100908.34;5013146;28;20030;-57
2022/10/27 05:53:01;;;;;;;6.63;1.88;;;;;;;24.39;45.39;100905.72;5013205;28;20034;-57
2022/10/27 05:55:29;;;;;;;3.72;1.30;;;;;;;24.38;45.38;100903.97;4995192;28;20080;-57
2022/10/27 05:58:00;;;;;;;5.93;1.38;;;;;;;24.35;45.21;100911.78;4995502;28;20031;-55
2022/10/27 06:00:31;;;;;;;4.47;1.40;;;;;;;24.33;45.46;100910.03;5013331;28;20510;-58
2022/10/27 06:03:00;;;;;;;4.50;1.50;;;;;;;24.40;45.14;100925.84;4996709;28;20125;-57
2022/10/27 06:05:30;;;;;;;5.97;1.35;;;;;;;24.43;45.34;100919.72;5016512;28;20046;-57
2022/10/27 06:07:59;;;;;;;3.88;1.33;;;;;;;24.36;45.51;100920.53;5016549;28;20029;-57
2022/10/27 06:10:28;;;;;;;3.30;1.35;;;;;;;24.36;45.39;100926.66;5016393;28;20033;-56
2022/10/27 06:13:06;;;;;;;4.47;1.33;;;;;;;24.27;45.64;100927.44;5017011;28;20026;-57
2022/10/27 06:15:35;;;;;;;2.55;0.90;;;;;;;24.33;45.49;100929.22;5017106;28;20537;-58
2022/10/27 06:18:03;;;;;;;4.18;1.10;;;;;;;24.38;45.37;100926.69;5016677;28;20033;-58
2022/10/27 06:20:32;;;;;;;7.93;1.77;;;;;;;24.34;45.30;100927.50;5016613;28;20102;-58
2022/10/27 06:23:01;;;;;;;3.95;1.42;;;;;;;24.33;45.51;100926.63;5016076;28;20233;-58
2022/10/27 06:25:30;;;;;;;3.95;1.23;;;;;;;24.30;45.24;100926.59;5016575;28;20034;-58
2022/10/27 06:27:58;;;;;;;4.85;1.38;;;;;;;24.32;45.32;100932.75;4998902;28;20053;-57
2022/10/27 06:30:27;;;;;;;6.30;1.80;;;;;;;24.28;45.33;100923.09;5016624;28;20431;-58
2022/10/27 06:32:55;;;;;;;2.38;0.82;;;;;;;24.30;45.44;100933.56;5016774;28;20033;-58
2022/10/27 06:35:24;;;;;;;4.57;1.60;;;;;;;24.35;45.46;100937.13;5016012;28;20040;-56
2022/10/27 06:37:53;;;;;;;3.45;1.40;;;;;;;24.34;45.21;100938.00;5016743;28;20105;-58
2022/10/27 06:40:22;;;;;;;5.10;1.40;;;;;;;24.38;45.13;100945.91;5016143;28;20032;-57
2022/10/27 06:42:52;;;;;;;4.18;1.13;;;;;;;24.36;45.37;100946.75;5016200;28;20390;-57
2022/10/27 06:45:20;;;;;;;4.18;1.20;;;;;;;24.33;45.22;100950.22;5016550;28;20026;-57
2022/10/27 06:48:03;;;;;;;4.80;1.98;;;;;;;24.32;45.31;100943.22;5015994;28;20077;-56
2022/10/27 06:50:32;;;;;;;2.90;1.00;;;;;;;24.33;45.68;100944.97;5016346;28;20121;-57
2022/10/27 06:53:01;;;;;;;6.38;1.48;;;;;;;24.37;45.25;100948.53;5016353;28;20061;-56
2022/10/27 06:55:30;;;;;;;4.32;1.35;;;;;;;24.31;45.58;100953.69;5016232;28;20036;-56
2022/10/27 06:57:58;;;;;;;4.55;1.75;;;;;;;24.37;45.21;100954.63;4982390;28;20794;-57
2022/10/27 07:00:27;;;;;;;3.92;1.30;;;;;;;24.36;45.23;100960.72;5016079;28;20025;-56
2022/10/27 07:02:56;;;;;;;2.75;1.38;;;;;;;24.37;45.12;100972.97;5015711;28;20030;-58
2022/10/27 07:05:24;;;;;;;4.32;1.33;;;;;;;24.34;45.52;100970.31;5015969;28;20034;-56
2022/10/27 07:07:53;;;;;;;5.57;1.20;;;;;;;24.31;45.60;100966.78;5015826;28;20029;-57
2022/10/27 07:10:22;;;;;;;3.45;0.90;;;;;;;24.30;45.12;100968.56;5016002;28;20152;-56
2022/10/27 07:12:53;;;;;;;4.07;1.48;;;;;;;24.30;45.39;100971.16;4997932;28;20042;-57
2022/10/27 07:15:21;;;;;;;1.98;0.90;;;;;;;24.32;45.31;100976.41;4997879;28;20030;-57
2022/10/27 07:17:55;;;;;;;3.03;1.10;;;;;;;24.28;45.67;100968.50;5015877;28;20478;-56
2022/10/27 07:20:24;;;;;;;7.43;2.20;;;;;;;24.29;45.27;100972.03;5015749;28;20037;-57
2022/10/27 07:22:52;;;;;;;3.25;1.15;;;;;;;24.32;45.53;100973.78;5015021;28;20069;-56
2022/10/27 07:25:21;;;;;;;3.83;1.30;;;;;;;24.31;45.33;100978.19;5015855;28;20037;-57
2022/10/27 07:27:52;;;;;;;5.13;1.40;;;;;;;24.30;45.22;100984.28;5015491;28;20026;-57
2022/10/27 07:30:22;;;;;;;2.35;0.95;;;;;;;24.32;45.31;100985.19;5015357;28;20483;-57
2022/10/27 07:32:51;;;;;;;3.05;1.08;;;;;;;24.31;45.42;100988.66;5015302;28;20030;-57
2022/10/27 07:35:20;;;;;;;3.05;1.17;;;;;;;24.28;45.59;100980.75;5015497;28;20029;-57
2022/10/27 07:37:49;;;;;;;4.68;1.40;;;;;;;24.30;45.21;100986.91;5015362;28;20497;-56
2022/10/27 07:40:19;;;;;;;4.03;1.27;;;;;;;24.36;45.46;101000.06;4997725;28;20037;-56
2022/10/27 07:42:55;;;;;;;3.05;1.02;;;;;;;24.36;45.30;100999.19;5014627;28;20066;-56
2022/10/27 07:45:25;;;;;;;4.35;1.38;;;;;;;24.39;45.32;101007.97;5015211;28;20109;-57
2022/10/27 07:47:56;;;;;;;4.05;1.17;;;;;;;24.36;45.36;101009.69;4997792;28;20022;-58
2022/10/27 07:50:28;;;;;;;2.17;0.93;;;;;;;24.41;45.10;101016.75;5015585;28;20026;-58
2022/10/27 07:52:57;;;;;;;3.67;1.20;;;;;;;24.48;44.81;101025.56;5015071;28;20108;-59
2022/10/27 07:55:26;;;;;;;2.80;1.10;;;;;;;24.45;44.98;101022.03;5015083;28;20066;-58
2022/10/27 07:58:06;;;;;;;5.28;1.38;;;;;;;24.43;44.86;101028.13;5014678;28;20483;-57
2022/10/27 08:00:38;;;;;;;2.97;1.35;;;;;;;24.47;44.87;101033.41;5015075;28;20026;-56
2022/10/27 08:03:08;;;;;;;3.80;1.35;;;;;;;24.54;44.69;101032.59;5014804;28;20025;-57
2022/10/27 08:05:37;;;;;;;3.97;0.90;;;;;;;24.49;45.08;101031.69;4996751;28;20053;-57
2022/10/27 08:08:07;;;;;;;3.47;1.02;;;;;;;24.53;44.84;101038.72;5014667;28;20105;-55
2022/10/27 08:10:38;;;;;;;3.40;1.23;;;;;;;24.60;44.78;101034.41;5014147;28;20026;-51
2022/10/27 08:13:08;;;;;;;1.90;0.70;;;;;;;24.56;44.81;101044.00;4996622;28;20033;-58
2022/10/27 08:15:36;;;;;;;3.72;1.15;;;;;;;24.52;44.82;101032.59;4996854;28;20079;-58
2022/10/27 08:18:05;;;;;;;5.38;1.55;;;;;;;24.53;44.97;101057.06;5014719;28;20026;-59
2022/10/27 08:20:35;;;;;;;3.72;1.02;;;;;;;24.55;44.90;101047.47;5014489;28;20109;-58
2022/10/27 08:23:05;;;;;;;7.80;1.52;;;;;;;24.54;45.07;101044.00;5014285;28;20399;-58
2022/10/27 08:25:34;;;;;;;6.22;1.17;;;;;;;24.60;44.98;101060.66;5014185;28;20061;-55
2022/10/27 08:28:03;;;;;;;3.75;1.33;;;;;;;24.59;44.71;101041.41;5014293;28;20115;-58
2022/10/27 08:30:33;;;;;;;1.98;0.82;;;;;;;24.61;44.86;101029.22;5014357;28;20038;-58
2022/10/27 08:33:02;;;;;;;3.97;1.10;;;;;;;24.60;45.09;101034.41;4996421;28;20057;-58
2022/10/27 08:35:32;;;;;;;3.80;1.50;;;;;;;24.62;45.10;101038.84;5014463;28;20026;-58
2022/10/27 08:38:05;;;;;;;3.60;1.10;;;;;;;24.55;45.28;101063.22;5014273;28;20026;-58
2022/10/27 08:40:41;;;;;;;3.03;0.98;;;;;;;24.59;45.06;101086.00;5014049;28;20025;-56
2022/10/27 08:43:41;;;;;;;4.28;1.58;;;;;;;24.49;44.99;101066.66;5014112;28;20061;-58
2022/10/27 08:46:18;;;;;;;3.88;1.25;;;;;;;24.52;45.12;101066.69;5014313;28;20104;-58
2022/10/27 08:48:48;;;;;;;3.03;1.00;;;;;;;24.55;45.13;101061.50;4997057;28;20029;-57
2022/10/27 08:51:20;;;;;;;5.68;1.60;;;;;;;24.49;45.04;101064.03;5013795;28;20037;-57
2022/10/27 08:53:51;;;;;;;3.22;1.15;;;;;;;24.53;45.17;101063.22;5013867;28;20387;-57
2022/10/27 08:56:22;;;;;;;4.13;1.40;;;;;;;24.55;45.33;101077.22;4996434;28;20030;-57
2022/10/27 08:58:51;;;;;;;4.05;1.55;;;;;;;24.57;45.17;101062.38;5013689;28;20026;-57
2022/10/27 09:01:26;;;;;;;5.40;1.40;;;;;;;24.62;45.03;101070.31;4996567;28;20026;-57
2022/10/27 09:04:21;;;;;;;5.70;1.42;;;;;;;24.54;45.28;101074.56;5013908;28;20092;-56
2022/10/27 09:07:17;;;;;;;4.22;1.25;;;;;;;24.49;45.40;101068.41;5007471;28;20453;-57
2022/10/27 09:09:58;;;;;;;4.65;1.45;;;;;;;24.60;45.34;101087.78;5013705;28;20473;-57
2022/10/27 09:12:55;;;;;;;3.28;1.30;;;;;;;24.57;45.18;101074.63;5013555;28;20033;-55
2022/10/27 09:15:44;;;;;;;5.22;1.75;;;;;;;24.62;44.96;101078.19;5003225;28;20088;-51
2022/10/27 09:18:13;;;;;;;4.90;1.55;;;;;;;24.57;45.20;101085.97;4989128;28;20061;-58
2022/10/27 09:20:56;;;;;;;3.03;1.15;;;;;;;24.54;45.34;101077.19;4995914;28;20064;-57
2022/10/27 09:23:29;;;;;;;3.80;1.13;;;;;;;24.55;45.25;101098.22;5013352;28;20483;-57
2022/10/27 09:25:59;;;;;;;5.93;1.80;;;;;;;24.54;45.38;101104.31;4995844;28;20129;-57
2022/10/27 09:28:48;;;;;;;4.53;0.98;;;;;;;24.53;45.19;101101.66;5013566;28;20450;-55
2022/10/27 09:31:36;;;;;;;5.38;1.45;;;;;;;24.54;45.49;101103.41;5004945;28;20042;-57
2022/10/27 09:34:12;;;;;;;7.85;1.77;;;;;;;24.53;45.33;101104.28;4987490;28;20049;-58
2022/10/27 09:36:41;;;;;;;3.03;1.27;;;;;;;24.52;45.59;101079.81;5012735;28;20029;-58
2022/10/27 09:39:10;;;;;;;2.40;1.00;;;;;;;24.45;45.37;101056.97;5012973;28;20080;-58
2022/10/27 09:41:39;;;;;;;4.22;1.52;;;;;;;24.52;45.49;101073.66;5013169;28;20037;-58
2022/10/27 09:44:20;;;;;;;2.25;0.93;;;;;;;24.50;45.63;101080.63;5012957;28;20105;-56
2022/10/27 09:46:51;;;;;;;4.93;1.45;;;;;;;24.51;45.45;101077.16;4995712;28;20360;-56
2022/10/27 09:49:21;;;;;;;6.00;1.88;;;;;;;24.56;45.47;101096.47;4995856;28;20030;-56
2022/10/27 09:51:55;;;;;;;4.68;1.70;;;;;;;24.54;45.28;101096.44;4995897;28;20388;-58
2022/10/27 09:54:35;;;;;;;6.10;1.60;;;;;;;24.51;45.41;101083.28;4980120;28;20026;-57
2022/10/27 09:57:17;;;;;;;6.88;1.88;;;;;;;24.51;45.39;101085.03;5012396;28;20034;-57
2022/10/27 10:00:06;;;;;;;5.13;1.23;;;;;;;24.48;45.45;101079.75;5013166;28;20370;-58
2022/10/27 10:02:39;;;;;;;4.55;1.52;;;;;;;24.58;45.21;101089.50;5013107;28;20033;-58
2022/10/27 10:05:21;;;;;;;4.22;1.35;;;;;;;24.56;45.21;101097.34;5012722;28;20125;-57
2022/10/27 10:07:49;;;;;;;3.75;1.15;;;;;;;24.63;45.18;101084.28;5012960;28;20197;-58
2022/10/27 10:10:21;;;;;;;3.92;1.05;;;;;;;24.62;45.18;101080.81;5013046;28;20390;-57
2022/10/27 10:13:13;;;;;;;3.35;1.55;;;;;;;24.60;45.35;101082.53;4995687;28;20029;-57
2022/10/27 10:15:46;;;;;;;5.15;1.70;;;;;;;24.61;45.24;101067.66;5005697;28;20038;-56
2022/10/27 10:18:26;;;;;;;6.53;1.33;;;;;;;24.62;45.46;101061.56;5012692;28;20058;-57
2022/10/27 10:21:05;;;;;;;2.63;1.00;;;;;;;24.59;45.48;101070.28;5012722;28;20026;-56
2022/10/27 10:23:36;;;;;;;4.07;1.63;;;;;;;24.59;45.32;101059.78;5012367;28;20033;-57
2022/10/27 10:26:14;;;;;;;4.75;1.70;;;;;;;24.62;45.21;101059.81;5012718;28;20087;-58
2022/10/27 10:28:44;;;;;;;4.03;1.20;;;;;;;24.60;45.45;101051.06;4995246;28;20025;-51
2022/10/27 10:31:15;;;;;;;3.50;1.10;;;;;;;24.62;45.44;101046.72;4979192;28;20637;-58
2022/10/27 10:33:45;;;;;;;3.08;1.30;;;;;;;24.60;45.29;101051.06;5012963;28;20022;-58
2022/10/27 10:36:25;;;;;;;5.15;1.30;;;;;;;24.59;45.15;101062.41;5012925;28;20100;-58
2022/10/27 10:38:55;;;;;;;4.03;1.60;;;;;;;24.61;45.27;101059.78;4995195;28;20109;-58
2022/10/27 10:41:24;;;;;;;5.00;1.42;;;;;;;24.64;45.37;101060.72;4995236;28;20034;-58
2022/10/27 10:44:12;;;;;;;6.40;1.67;;;;;;;24.61;45.56;101063.31;4995702;28;20470;-58
2022/10/27 10:47:00;;;;;;;4.30;1.42;;;;;;;24.58;45.37;101051.00;5012819;28;20113;-58
2022/10/27 10:49:32;;;;;;;6.43;1.70;;;;;;;24.60;45.39;101053.69;5007402;28;20042;-57
2022/10/27 10:52:03;;;;;;;5.03;1.30;;;;;;;24.67;45.39;101052.88;4998901;28;20061;-56
2022/10/27 10:54:36;;;;;;;5.03;1.33;;;;;;;24.69;45.33;101063.41;4999089;28;20494;-57
2022/10/27 10:57:05;;;;;;;4.45;1.52;;;;;;;24.73;45.29;101054.75;5015973;28;20026;-57
2022/10/27 10:59:35;;;;;;;3.97;1.30;;;;;;;24.68;45.28;101062.50;4998781;28;20018;-58
2022/10/27 11:02:06;;;;;;;3.53;1.65;;;;;;;24.69;45.67;101077.38;4998515;28;20041;-57
2022/10/27 11:04:43;;;;;;;7.35;1.95;;;;;;;24.61;45.80;101097.41;5015751;28;20075;-57
2022/10/27 11:07:33;;;;;;;4.57;1.30;;;;;;;24.61;45.56;101067.66;4982425;28;20033;-57
2022/10/27 11:10:19;;;;;;;4.30;1.38;;;;;;;24.62;45.84;101086.06;4998598;28;20045;-56
2022/10/27 11:13:03;;;;;;;3.38;1.20;;;;;;;24.61;45.77;101097.41;4982832;28;20042;-58
2022/10/27 11:15:39;;;;;;;2.78;1.10;;;;;;;24.60;45.72;101089.50;4982524;28;20029;-57
2022/10/27 11:18:28;;;;;;;5.78;1.90;;;;;;;24.59;45.74;101088.63;4998578;28;20032;-53
2022/10/27 11:21:04;;;;;;;3.78;1.40;;;;;;;24.63;45.82;101087.81;5015607;28;20498;-58
2022/10/27 11:23:43;;;;;;;4.80;1.80;;;;;;;24.49;45.62;101063.16;4998082;28;20076;-57
2022/10/27 11:26:12;;;;;;;6.18;1.75;;;;;;;24.58;45.91;101079.88;4997918;28;20029;-57
2022/10/27 11:28:46;;;;;;;6.43;1.90;;;;;;;24.60;45.79;101085.16;4998424;28;20044;-57
2022/10/27 11:31:38;;;;;;;5.57;1.60;;;;;;;24.56;45.96;101097.34;4998250;28;20033;-57
2022/10/27 11:34:45;;;;;;;6.57;2.42;;;;;;;24.57;45.87;101098.22;5015346;28;20030;-58
2022/10/27 11:37:34;;;;;;;11.98;2.42;;;;;;;24.62;45.99;101106.13;5007960;28;20045;-56
2022/10/27 11:40:12;;;;;;;4.95;1.98;;;;;;;24.62;45.50;101111.38;4991160;28;20065;-56
2022/10/27 11:43:00;;;;;;;6.05;1.70;;;;;;;24.64;45.73;101125.41;4998072;28;20037;-50
2022/10/27 11:45:37;;;;;;;6.68;2.05;;;;;;;24.55;45.84;101129.69;5014440;28;20084;-51
2022/10/27 11:48:18;;;;;;;6.13;1.83;;;;;;;24.61;45.77;101139.38;5015301;28;20026;-55
2022/10/27 11:50:54;;;;;;;7.38;1.95;;;;;;;24.59;45.77;101133.22;5014974;28;20032;-50
2022/10/27 11:53:23;;;;;;;6.03;2.08;;;;;;;24.60;45.95;101126.22;4997153;28;20081;-57
2022/10/27 11:56:14;;;;;;;7.68;2.25;;;;;;;24.53;46.12;101126.16;5014834;28;20113;-58
2022/10/27 11:58:51;;;;;;;5.93;1.60;;;;;;;24.57;45.79;101119.19;5007257;28;20410;-58